TKJ3TQ LTAC-UGTB
Flight info
| Callsign | TKJ3TQ |
|---|---|
| Flight time | 1h 25m |
| Altitude | 35000 |
| Route | GOBIT UL614 JUPNE UT54 SIV DCT GONPU UN61 NOLGA N61 LAGAS |
| Aircraft | A320/M-SDE3FGHIRWY/LB1 |
Departure
| Time | 2026-04-28 17:15 |
|---|---|
| Airport | Esenboğa International Airport (LTAC) |
Arrival
| Time | 2026-04-28 18:40 |
|---|---|
| Airport | Tbilisi International Airport (UGTB) |
| Time | Latitude | Longitude | Altitude | Speed | Heading |
|---|---|---|---|---|---|
| 2026-04-28 16:49 | 40.11701 | 32.99427 | 3113 ft | 0 kts | 168° |
| 2026-04-28 17:08 | 40.11714 | 32.99424 | 3113 ft | 4 kts | 172° |
| 2026-04-28 17:08 | 40.11741 | 32.99422 | 3113 ft | 4 kts | 187° |
| 2026-04-28 17:08 | 40.11765 | 32.99431 | 3113 ft | 4 kts | 223° |
| 2026-04-28 17:08 | 40.11774 | 32.99447 | 3113 ft | 0 kts | 259° |
| 2026-04-28 17:12 | 40.11774 | 32.99446 | 3113 ft | 1 kts | 259° |
| 2026-04-28 17:12 | 40.11770 | 32.99416 | 3113 ft | 8 kts | 259° |
| 2026-04-28 17:12 | 40.11753 | 32.99325 | 3113 ft | 12 kts | 251° |
| 2026-04-28 17:12 | 40.11717 | 32.99202 | 3113 ft | 17 kts | 246° |
| 2026-04-28 17:13 | 40.11655 | 32.99062 | 3113 ft | 17 kts | 235° |
| 2026-04-28 17:13 | 40.11629 | 32.98942 | 3113 ft | 15 kts | 295° |
| 2026-04-28 17:13 | 40.11688 | 32.98833 | 3113 ft | 14 kts | 306° |
| 2026-04-28 17:13 | 40.11746 | 32.98731 | 3113 ft | 15 kts | 306° |
| 2026-04-28 17:14 | 40.11810 | 32.98615 | 3113 ft | 17 kts | 306° |
| 2026-04-28 17:14 | 40.11877 | 32.98512 | 3113 ft | 14 kts | 330° |
| 2026-04-28 17:14 | 40.11955 | 32.98534 | 3113 ft | 0 kts | 36° |
| 2026-04-28 17:14 | 40.11964 | 32.98543 | 3113 ft | 17 kts | 36° |
| 2026-04-28 17:15 | 40.12326 | 32.98895 | 3118 ft | 108 kts | 35° |
| 2026-04-28 17:15 | 40.13125 | 32.99656 | 3154 ft | 171 kts | 38° |
| 2026-04-28 17:15 | 40.14142 | 33.00634 | 3776 ft | 193 kts | 37° |
| 2026-04-28 17:15 | 40.15248 | 33.01785 | 4510 ft | 213 kts | 36° |
| 2026-04-28 17:16 | 40.16451 | 33.03065 | 5140 ft | 229 kts | 37° |
| 2026-04-28 17:16 | 40.17661 | 33.04360 | 5729 ft | 228 kts | 37° |
| 2026-04-28 17:16 | 40.18909 | 33.05687 | 6383 ft | 232 kts | 35° |
| 2026-04-28 17:16 | 40.20170 | 33.07028 | 6992 ft | 236 kts | 40° |
| 2026-04-28 17:17 | 40.21062 | 33.08821 | 7591 ft | 242 kts | 76° |
| 2026-04-28 17:17 | 40.20930 | 33.11004 | 8217 ft | 245 kts | 115° |
| 2026-04-28 17:17 | 40.20057 | 33.12917 | 8865 ft | 246 kts | 127° |
| 2026-04-28 17:17 | 40.18980 | 33.14660 | 9516 ft | 246 kts | 131° |
| 2026-04-28 17:18 | 40.17852 | 33.16354 | 10151 ft | 248 kts | 132° |
| 2026-04-28 17:18 | 40.16720 | 33.18061 | 10758 ft | 249 kts | 132° |
| 2026-04-28 17:18 | 40.15588 | 33.19807 | 11378 ft | 253 kts | 132° |
| 2026-04-28 17:18 | 40.14445 | 33.21603 | 12012 ft | 261 kts | 131° |
| 2026-04-28 17:19 | 40.13266 | 33.23491 | 12528 ft | 278 kts | 130° |
| 2026-04-28 17:19 | 40.12002 | 33.25544 | 12814 ft | 302 kts | 130° |
| 2026-04-28 17:19 | 40.10646 | 33.27768 | 13054 ft | 325 kts | 130° |
| 2026-04-28 17:19 | 40.09191 | 33.30170 | 13289 ft | 348 kts | 129° |
| 2026-04-28 17:20 | 40.07642 | 33.32736 | 13514 ft | 367 kts | 129° |
| 2026-04-28 17:20 | 40.06590 | 33.34481 | 13776 ft | 373 kts | 129° |
| 2026-04-28 17:20 | 40.04429 | 33.38067 | 14708 ft | 378 kts | 129° |
| 2026-04-28 17:20 | 40.02794 | 33.40776 | 15328 ft | 381 kts | 129° |
| 2026-04-28 17:21 | 40.01153 | 33.43518 | 15922 ft | 385 kts | 128° |
| 2026-04-28 17:21 | 39.99575 | 33.46365 | 16523 ft | 390 kts | 126° |
| 2026-04-28 17:21 | 39.98049 | 33.49297 | 17133 ft | 394 kts | 124° |
| 2026-04-28 17:22 | 39.95025 | 33.55298 | 18354 ft | 401 kts | 124° |
| 2026-04-28 17:22 | 39.93482 | 33.58348 | 18906 ft | 405 kts | 124° |
| 2026-04-28 17:22 | 39.91909 | 33.61418 | 19475 ft | 408 kts | 125° |
| 2026-04-28 17:23 | 39.88703 | 33.67581 | 20620 ft | 414 kts | 125° |
| 2026-04-28 17:23 | 39.87077 | 33.70685 | 21157 ft | 417 kts | 125° |
| 2026-04-28 17:23 | 39.85433 | 33.73815 | 21677 ft | 420 kts | 125° |
| 2026-04-28 17:23 | 39.83774 | 33.76963 | 22180 ft | 423 kts | 126° |
| 2026-04-28 17:24 | 39.82102 | 33.80134 | 22679 ft | 426 kts | 126° |
| 2026-04-28 17:24 | 39.80421 | 33.83326 | 23183 ft | 429 kts | 126° |
| 2026-04-28 17:24 | 39.78737 | 33.86543 | 23644 ft | 433 kts | 124° |
| 2026-04-28 17:24 | 39.77278 | 33.90010 | 24047 ft | 438 kts | 115° |
| 2026-04-28 17:25 | 39.76189 | 33.93726 | 24447 ft | 442 kts | 111° |
| 2026-04-28 17:25 | 39.74064 | 34.01284 | 25245 ft | 447 kts | 111° |
| 2026-04-28 17:25 | 39.72981 | 34.05085 | 25629 ft | 450 kts | 112° |
| 2026-04-28 17:26 | 39.71884 | 34.08920 | 26016 ft | 453 kts | 112° |
| 2026-04-28 17:26 | 39.70800 | 34.12717 | 26412 ft | 456 kts | 111° |
| 2026-04-28 17:26 | 39.69699 | 34.16588 | 26799 ft | 458 kts | 112° |
| 2026-04-28 17:26 | 39.68589 | 34.20489 | 27192 ft | 461 kts | 112° |
| 2026-04-28 17:27 | 39.67474 | 34.24407 | 27593 ft | 464 kts | 112° |
| 2026-04-28 17:27 | 39.66351 | 34.28340 | 27980 ft | 466 kts | 112° |
| 2026-04-28 17:27 | 39.65216 | 34.32303 | 28365 ft | 469 kts | 112° |
| 2026-04-28 17:27 | 39.64145 | 34.36307 | 28744 ft | 472 kts | 107° |
| 2026-04-28 17:28 | 39.63481 | 34.40491 | 29109 ft | 476 kts | 98° |
| 2026-04-28 17:28 | 39.63622 | 34.49114 | 29837 ft | 482 kts | 83° |
| 2026-04-28 17:28 | 39.64033 | 34.53429 | 30261 ft | 483 kts | 83° |
| 2026-04-28 17:29 | 39.64432 | 34.57760 | 30712 ft | 482 kts | 83° |
| 2026-04-28 17:29 | 39.64818 | 34.62073 | 31167 ft | 482 kts | 83° |
| 2026-04-28 17:29 | 39.65201 | 34.66391 | 31611 ft | 481 kts | 83° |
| 2026-04-28 17:30 | 39.65968 | 34.75011 | 32522 ft | 481 kts | 83° |
| 2026-04-28 17:30 | 39.66742 | 34.83627 | 33426 ft | 480 kts | 83° |
| 2026-04-28 17:30 | 39.67128 | 34.87932 | 33865 ft | 480 kts | 83° |
| 2026-04-28 17:31 | 39.67511 | 34.92241 | 34265 ft | 480 kts | 84° |
| 2026-04-28 17:31 | 39.68270 | 35.00855 | 34928 ft | 481 kts | 84° |
| 2026-04-28 17:32 | 39.69029 | 35.09587 | 34981 ft | 493 kts | 84° |
| 2026-04-28 17:32 | 39.69409 | 35.13965 | 34984 ft | 495 kts | 84° |
| 2026-04-28 17:32 | 39.70173 | 35.22915 | 34981 ft | 496 kts | 84° |
| 2026-04-28 17:33 | 39.70925 | 35.31757 | 34977 ft | 496 kts | 84° |
| 2026-04-28 17:33 | 39.71431 | 35.37713 | 34978 ft | 496 kts | 84° |
| 2026-04-28 17:34 | 39.72425 | 35.49578 | 34984 ft | 496 kts | 84° |
| 2026-04-28 17:34 | 39.73149 | 35.58484 | 34977 ft | 496 kts | 84° |
| 2026-04-28 17:35 | 39.73877 | 35.67392 | 34978 ft | 496 kts | 84° |
| 2026-04-28 17:35 | 39.74600 | 35.76297 | 34984 ft | 496 kts | 84° |
| 2026-04-28 17:36 | 39.75314 | 35.85203 | 34995 ft | 496 kts | 84° |
| 2026-04-28 17:36 | 39.76020 | 35.94117 | 35003 ft | 496 kts | 84° |
| 2026-04-28 17:37 | 39.76722 | 36.03041 | 34988 ft | 496 kts | 85° |
| 2026-04-28 17:37 | 39.77414 | 36.11954 | 34992 ft | 496 kts | 85° |
| 2026-04-28 17:38 | 39.78097 | 36.20874 | 34990 ft | 496 kts | 85° |
| 2026-04-28 17:38 | 39.78611 | 36.29819 | 34995 ft | 496 kts | 89° |
| 2026-04-28 17:39 | 39.78681 | 36.38779 | 34995 ft | 495 kts | 91° |
| 2026-04-28 17:40 | 39.78623 | 36.52225 | 34993 ft | 496 kts | 91° |
| 2026-04-28 17:40 | 39.78701 | 36.61189 | 35043 ft | 496 kts | 90° |
| 2026-04-28 17:41 | 39.78810 | 36.70152 | 35070 ft | 496 kts | 90° |
| 2026-04-28 17:41 | 39.78888 | 36.79111 | 35099 ft | 496 kts | 90° |
| 2026-04-28 17:42 | 39.79221 | 36.88058 | 35091 ft | 497 kts | 81° |
| 2026-04-28 17:42 | 39.80848 | 36.95189 | 35097 ft | 496 kts | 66° |
| 2026-04-28 17:43 | 39.83564 | 37.03453 | 35086 ft | 497 kts | 67° |
| 2026-04-28 17:43 | 39.86260 | 37.11728 | 35054 ft | 497 kts | 67° |
| 2026-04-28 17:44 | 39.88942 | 37.20026 | 35028 ft | 497 kts | 67° |
| 2026-04-28 17:44 | 39.91611 | 37.28323 | 34996 ft | 497 kts | 67° |
| 2026-04-28 17:45 | 39.94290 | 37.36633 | 34974 ft | 497 kts | 67° |
| 2026-04-28 17:45 | 39.96968 | 37.44934 | 34970 ft | 497 kts | 67° |
| 2026-04-28 17:46 | 39.99629 | 37.53259 | 34972 ft | 497 kts | 68° |
| 2026-04-28 17:46 | 40.02278 | 37.61598 | 34973 ft | 497 kts | 68° |
| 2026-04-28 17:47 | 40.04930 | 37.69918 | 34971 ft | 497 kts | 67° |
| 2026-04-28 17:47 | 40.07579 | 37.78244 | 34958 ft | 497 kts | 68° |
| 2026-04-28 17:48 | 40.10217 | 37.86574 | 34958 ft | 497 kts | 68° |
| 2026-04-28 17:48 | 40.12847 | 37.94919 | 34962 ft | 496 kts | 68° |
| 2026-04-28 17:49 | 40.15474 | 38.03266 | 34961 ft | 496 kts | 68° |
| 2026-04-28 17:49 | 40.18093 | 38.11624 | 34971 ft | 496 kts | 68° |
| 2026-04-28 17:50 | 40.20699 | 38.19982 | 34985 ft | 496 kts | 68° |
| 2026-04-28 17:50 | 40.23304 | 38.28357 | 34991 ft | 496 kts | 68° |
| 2026-04-28 17:51 | 40.25894 | 38.36685 | 34997 ft | 496 kts | 68° |
| 2026-04-28 17:51 | 40.28486 | 38.45074 | 34988 ft | 496 kts | 68° |
| 2026-04-28 17:52 | 40.31069 | 38.53456 | 35005 ft | 496 kts | 68° |
| 2026-04-28 17:52 | 40.34938 | 38.66018 | 35024 ft | 496 kts | 68° |
| 2026-04-28 17:53 | 40.37508 | 38.74412 | 35022 ft | 495 kts | 68° |
| 2026-04-28 17:53 | 40.40072 | 38.82812 | 35020 ft | 495 kts | 68° |
| 2026-04-28 17:54 | 40.42605 | 38.91146 | 35024 ft | 495 kts | 69° |
| 2026-04-28 17:54 | 40.45155 | 38.99546 | 35028 ft | 495 kts | 69° |
| 2026-04-28 17:55 | 40.47695 | 39.07933 | 35003 ft | 494 kts | 69° |
| 2026-04-28 17:55 | 40.50231 | 39.16329 | 35002 ft | 494 kts | 69° |
| 2026-04-28 17:56 | 40.52759 | 39.24752 | 35014 ft | 494 kts | 69° |
| 2026-04-28 17:56 | 40.55281 | 39.33167 | 35032 ft | 495 kts | 69° |
| 2026-04-28 17:57 | 40.57795 | 39.41588 | 35029 ft | 494 kts | 69° |
| 2026-04-28 17:57 | 40.60304 | 39.50020 | 35046 ft | 494 kts | 69° |
| 2026-04-28 17:58 | 40.62805 | 39.58436 | 35075 ft | 494 kts | 69° |
| 2026-04-28 17:58 | 40.65298 | 39.66871 | 35068 ft | 494 kts | 69° |
| 2026-04-28 17:59 | 40.67777 | 39.75312 | 35074 ft | 494 kts | 69° |
| 2026-04-28 17:59 | 40.70252 | 39.83707 | 35077 ft | 494 kts | 69° |
| 2026-04-28 18:00 | 40.72737 | 39.92163 | 35075 ft | 494 kts | 69° |
| 2026-04-28 18:00 | 40.75206 | 40.00614 | 35080 ft | 494 kts | 70° |
| 2026-04-28 18:01 | 40.77669 | 40.09069 | 35072 ft | 494 kts | 70° |
| 2026-04-28 18:01 | 40.80121 | 40.17534 | 35090 ft | 494 kts | 70° |
| 2026-04-28 18:02 | 40.82569 | 40.26004 | 35091 ft | 494 kts | 70° |
| 2026-04-28 18:02 | 40.85012 | 40.34469 | 35095 ft | 494 kts | 70° |
| 2026-04-28 18:03 | 40.87443 | 40.42958 | 35104 ft | 494 kts | 70° |
| 2026-04-28 18:03 | 40.89859 | 40.51397 | 35104 ft | 494 kts | 70° |
| 2026-04-28 18:04 | 40.92287 | 40.59896 | 35124 ft | 494 kts | 70° |
| 2026-04-28 18:04 | 40.94713 | 40.68416 | 35136 ft | 494 kts | 70° |
| 2026-04-28 18:05 | 40.96723 | 40.75490 | 35140 ft | 494 kts | 70° |
| 2026-04-28 18:05 | 40.99538 | 40.85451 | 35149 ft | 494 kts | 70° |
| 2026-04-28 18:06 | 41.01941 | 40.93997 | 35155 ft | 494 kts | 70° |
| 2026-04-28 18:06 | 41.04328 | 41.02540 | 35147 ft | 494 kts | 71° |
| 2026-04-28 18:07 | 41.06722 | 41.11080 | 35143 ft | 495 kts | 71° |
| 2026-04-28 18:07 | 41.09091 | 41.19582 | 35126 ft | 495 kts | 71° |
| 2026-04-28 18:08 | 41.11470 | 41.28150 | 35107 ft | 495 kts | 71° |
| 2026-04-28 18:08 | 41.13851 | 41.36724 | 35102 ft | 495 kts | 71° |
| 2026-04-28 18:09 | 41.16231 | 41.45334 | 35106 ft | 495 kts | 71° |
| 2026-04-28 18:09 | 41.18590 | 41.53913 | 35095 ft | 495 kts | 71° |
| 2026-04-28 18:10 | 41.20945 | 41.62507 | 35096 ft | 495 kts | 71° |
| 2026-04-28 18:10 | 41.23286 | 41.71065 | 34933 ft | 488 kts | 71° |
| 2026-04-28 18:11 | 41.24437 | 41.75274 | 34523 ft | 483 kts | 71° |
| 2026-04-28 18:11 | 41.25573 | 41.79451 | 34131 ft | 479 kts | 71° |
| 2026-04-28 18:11 | 41.26700 | 41.83615 | 33642 ft | 479 kts | 71° |
| 2026-04-28 18:11 | 41.27823 | 41.87776 | 33181 ft | 479 kts | 71° |
| 2026-04-28 18:12 | 41.28947 | 41.91948 | 32719 ft | 479 kts | 71° |
| 2026-04-28 18:12 | 41.29981 | 41.96151 | 32282 ft | 478 kts | 77° |
| 2026-04-28 18:12 | 41.30624 | 42.00484 | 31843 ft | 478 kts | 82° |
| 2026-04-28 18:12 | 41.31181 | 42.04857 | 31401 ft | 479 kts | 82° |
| 2026-04-28 18:13 | 41.31744 | 42.09225 | 30969 ft | 480 kts | 82° |
| 2026-04-28 18:13 | 41.32311 | 42.13605 | 30543 ft | 480 kts | 82° |
| 2026-04-28 18:13 | 41.32802 | 42.17422 | 30185 ft | 481 kts | 82° |
| 2026-04-28 18:13 | 41.33367 | 42.21818 | 29703 ft | 482 kts | 82° |
| 2026-04-28 18:14 | 41.33930 | 42.26212 | 29226 ft | 481 kts | 82° |
| 2026-04-28 18:14 | 41.34488 | 42.30591 | 28751 ft | 478 kts | 82° |
| 2026-04-28 18:14 | 41.35044 | 42.34930 | 28053 ft | 476 kts | 82° |
| 2026-04-28 18:14 | 41.35592 | 42.39243 | 27565 ft | 470 kts | 82° |
| 2026-04-28 18:15 | 41.36133 | 42.43525 | 27122 ft | 467 kts | 82° |
| 2026-04-28 18:15 | 41.36661 | 42.47769 | 26680 ft | 463 kts | 82° |
| 2026-04-28 18:15 | 41.37184 | 42.51984 | 26244 ft | 459 kts | 82° |
| 2026-04-28 18:15 | 41.37696 | 42.56116 | 25823 ft | 456 kts | 82° |
| 2026-04-28 18:16 | 41.38211 | 42.60252 | 25391 ft | 453 kts | 82° |
| 2026-04-28 18:16 | 41.38723 | 42.64384 | 24977 ft | 449 kts | 82° |
| 2026-04-28 18:16 | 41.39227 | 42.68475 | 24569 ft | 446 kts | 82° |
| 2026-04-28 18:16 | 41.39729 | 42.72552 | 24167 ft | 443 kts | 82° |
| 2026-04-28 18:17 | 41.40224 | 42.76591 | 23768 ft | 439 kts | 82° |
| 2026-04-28 18:17 | 41.40831 | 42.80558 | 23330 ft | 437 kts | 73° |
| 2026-04-28 18:17 | 41.41917 | 42.84328 | 22872 ft | 434 kts | 69° |
| 2026-04-28 18:17 | 41.43036 | 42.88038 | 22493 ft | 431 kts | 69° |
| 2026-04-28 18:18 | 41.44139 | 42.91688 | 22146 ft | 428 kts | 69° |
| 2026-04-28 18:18 | 41.45262 | 42.95404 | 21803 ft | 426 kts | 69° |
| 2026-04-28 18:18 | 41.46354 | 42.99019 | 21467 ft | 423 kts | 69° |
| 2026-04-28 18:18 | 41.47093 | 43.01468 | 21242 ft | 421 kts | 69° |
| 2026-04-28 18:19 | 41.48534 | 43.06251 | 20793 ft | 418 kts | 69° |
| 2026-04-28 18:19 | 41.49609 | 43.09835 | 20475 ft | 415 kts | 69° |
| 2026-04-28 18:19 | 41.50682 | 43.13415 | 20152 ft | 413 kts | 69° |
| 2026-04-28 18:19 | 41.51741 | 43.16961 | 19834 ft | 411 kts | 69° |
| 2026-04-28 18:20 | 41.52793 | 43.20487 | 19521 ft | 409 kts | 69° |
| 2026-04-28 18:20 | 41.53842 | 43.24008 | 19206 ft | 407 kts | 69° |
| 2026-04-28 18:20 | 41.54882 | 43.27502 | 18904 ft | 403 kts | 69° |
| 2026-04-28 18:20 | 41.55913 | 43.30979 | 18603 ft | 402 kts | 69° |
| 2026-04-28 18:21 | 41.56937 | 43.34439 | 18298 ft | 399 kts | 69° |
| 2026-04-28 18:21 | 41.57960 | 43.37893 | 17944 ft | 398 kts | 68° |
| 2026-04-28 18:21 | 41.58981 | 43.41329 | 17598 ft | 398 kts | 68° |
| 2026-04-28 18:21 | 41.60002 | 43.44759 | 17248 ft | 395 kts | 69° |
| 2026-04-28 18:22 | 41.61007 | 43.48148 | 16918 ft | 392 kts | 69° |
| 2026-04-28 18:22 | 41.61996 | 43.51495 | 16585 ft | 390 kts | 69° |
| 2026-04-28 18:22 | 41.62996 | 43.54897 | 16251 ft | 387 kts | 69° |
| 2026-04-28 18:22 | 41.63963 | 43.58201 | 15922 ft | 386 kts | 69° |
| 2026-04-28 18:23 | 41.64941 | 43.61540 | 15629 ft | 383 kts | 69° |
| 2026-04-28 18:23 | 41.65914 | 43.64853 | 15348 ft | 381 kts | 68° |
| 2026-04-28 18:23 | 41.66885 | 43.68155 | 15067 ft | 381 kts | 68° |
| 2026-04-28 18:23 | 41.67851 | 43.71447 | 14779 ft | 379 kts | 68° |
| 2026-04-28 18:24 | 41.68810 | 43.74726 | 14482 ft | 378 kts | 68° |
| 2026-04-28 18:24 | 41.69135 | 43.75836 | 14391 ft | 378 kts | 68° |
| 2026-04-28 18:24 | 41.70719 | 43.81250 | 14110 ft | 375 kts | 68° |
| 2026-04-28 18:24 | 41.71666 | 43.84497 | 13985 ft | 375 kts | 68° |
| 2026-04-28 18:25 | 41.72294 | 43.86652 | 13901 ft | 374 kts | 68° |
| 2026-04-28 18:25 | 41.73221 | 43.89843 | 13769 ft | 359 kts | 69° |
| 2026-04-28 18:25 | 41.74103 | 43.92894 | 13635 ft | 344 kts | 68° |
| 2026-04-28 18:26 | 41.75762 | 43.98623 | 13308 ft | 314 kts | 68° |
| 2026-04-28 18:26 | 41.76529 | 44.01271 | 13033 ft | 297 kts | 68° |
| 2026-04-28 18:26 | 41.77260 | 44.03802 | 12776 ft | 289 kts | 69° |
| 2026-04-28 18:26 | 41.77979 | 44.06293 | 12525 ft | 285 kts | 69° |
| 2026-04-28 18:27 | 41.78691 | 44.08756 | 12266 ft | 281 kts | 69° |
| 2026-04-28 18:27 | 41.79394 | 44.11183 | 12022 ft | 278 kts | 69° |
| 2026-04-28 18:27 | 41.80088 | 44.13587 | 11764 ft | 275 kts | 69° |
| 2026-04-28 18:27 | 41.80771 | 44.15965 | 11524 ft | 272 kts | 69° |
| 2026-04-28 18:28 | 41.81447 | 44.18322 | 11281 ft | 269 kts | 69° |
| 2026-04-28 18:28 | 41.82115 | 44.20648 | 11037 ft | 266 kts | 69° |
| 2026-04-28 18:28 | 41.82776 | 44.22945 | 10792 ft | 261 kts | 69° |
| 2026-04-28 18:28 | 41.83424 | 44.25199 | 10547 ft | 257 kts | 69° |
| 2026-04-28 18:29 | 41.84061 | 44.27416 | 10309 ft | 253 kts | 69° |
| 2026-04-28 18:29 | 41.84689 | 44.29608 | 10073 ft | 251 kts | 69° |
| 2026-04-28 18:29 | 41.85312 | 44.31787 | 9820 ft | 249 kts | 70° |
| 2026-04-28 18:29 | 41.85930 | 44.33948 | 9542 ft | 248 kts | 71° |
| 2026-04-28 18:30 | 41.86546 | 44.36114 | 9276 ft | 249 kts | 70° |
| 2026-04-28 18:30 | 41.86955 | 44.37548 | 9116 ft | 248 kts | 70° |
| 2026-04-28 18:30 | 41.87775 | 44.40421 | 8768 ft | 245 kts | 71° |
| 2026-04-28 18:30 | 41.88381 | 44.42553 | 8505 ft | 243 kts | 70° |
| 2026-04-28 18:31 | 41.88983 | 44.44673 | 8261 ft | 243 kts | 72° |
| 2026-04-28 18:31 | 41.89575 | 44.46762 | 8121 ft | 243 kts | 73° |
| 2026-04-28 18:31 | 41.90180 | 44.48892 | 8001 ft | 241 kts | 71° |
| 2026-04-28 18:31 | 41.90775 | 44.50991 | 7867 ft | 241 kts | 71° |
| 2026-04-28 18:32 | 41.91363 | 44.53060 | 7752 ft | 240 kts | 73° |
| 2026-04-28 18:32 | 41.91957 | 44.55155 | 7635 ft | 239 kts | 72° |
| 2026-04-28 18:32 | 41.92518 | 44.57247 | 7505 ft | 238 kts | 78° |
| 2026-04-28 18:32 | 41.92692 | 44.59424 | 7382 ft | 235 kts | 94° |
| 2026-04-28 18:33 | 41.92392 | 44.61553 | 7260 ft | 231 kts | 111° |
| 2026-04-28 18:33 | 41.91663 | 44.63467 | 7142 ft | 229 kts | 126° |
| 2026-04-28 18:33 | 41.90587 | 44.65034 | 7039 ft | 229 kts | 136° |
| 2026-04-28 18:33 | 41.89427 | 44.66503 | 6944 ft | 230 kts | 136° |
| 2026-04-28 18:34 | 41.88269 | 44.67976 | 6952 ft | 230 kts | 136° |
| 2026-04-28 18:34 | 41.87110 | 44.69454 | 6953 ft | 225 kts | 136° |
| 2026-04-28 18:34 | 41.85987 | 44.70887 | 6962 ft | 222 kts | 136° |
| 2026-04-28 18:34 | 41.84874 | 44.72305 | 6899 ft | 220 kts | 136° |
| 2026-04-28 18:35 | 41.83771 | 44.73712 | 6651 ft | 217 kts | 136° |
| 2026-04-28 18:35 | 41.82679 | 44.75102 | 6328 ft | 217 kts | 136° |
| 2026-04-28 18:35 | 41.81583 | 44.76497 | 5988 ft | 217 kts | 136° |
| 2026-04-28 18:35 | 41.80496 | 44.77880 | 5652 ft | 211 kts | 135° |
| 2026-04-28 18:36 | 41.79460 | 44.79196 | 5328 ft | 200 kts | 135° |
| 2026-04-28 18:36 | 41.78478 | 44.80444 | 5046 ft | 188 kts | 134° |
| 2026-04-28 18:36 | 41.77571 | 44.81596 | 4756 ft | 173 kts | 135° |
| 2026-04-28 18:36 | 41.76733 | 44.82661 | 4475 ft | 163 kts | 134° |
| 2026-04-28 18:37 | 41.75928 | 44.83682 | 4232 ft | 153 kts | 134° |
| 2026-04-28 18:37 | 41.75177 | 44.84636 | 4017 ft | 143 kts | 134° |
| 2026-04-28 18:37 | 41.74454 | 44.85554 | 3807 ft | 150 kts | 135° |
| 2026-04-28 18:37 | 41.73694 | 44.86519 | 3564 ft | 150 kts | 134° |
| 2026-04-28 18:38 | 41.72927 | 44.87492 | 3306 ft | 152 kts | 136° |
| 2026-04-28 18:38 | 41.72153 | 44.88472 | 3055 ft | 153 kts | 136° |
| 2026-04-28 18:38 | 41.71390 | 44.89439 | 2808 ft | 143 kts | 136° |
| 2026-04-28 18:38 | 41.70692 | 44.90323 | 2581 ft | 138 kts | 136° |
| 2026-04-28 18:39 | 41.70013 | 44.91183 | 2381 ft | 132 kts | 136° |
| 2026-04-28 18:39 | 41.69347 | 44.92027 | 2135 ft | 131 kts | 137° |
| 2026-04-28 18:39 | 41.68686 | 44.92869 | 1865 ft | 130 kts | 136° |
| 2026-04-28 18:39 | 41.68029 | 44.93707 | 1676 ft | 130 kts | 137° |
| 2026-04-28 18:40 | 41.67376 | 44.94535 | 1526 ft | 126 kts | 136° |
| 2026-04-28 18:40 | 41.66848 | 44.95196 | 1522 ft | 80 kts | 136° |
| 2026-04-28 18:40 | 41.66543 | 44.95579 | 1517 ft | 47 kts | 137° |
| 2026-04-28 18:40 | 41.66323 | 44.95854 | 1523 ft | 37 kts | 136° |
| 2026-04-28 18:41 | 41.66136 | 44.96089 | 1522 ft | 37 kts | 136° |
| 2026-04-28 18:41 | 41.65950 | 44.96325 | 1520 ft | 37 kts | 136° |
| 2026-04-28 18:41 | 41.65841 | 44.96500 | 1523 ft | 19 kts | 97° |
| 2026-04-28 18:41 | 41.65922 | 44.96599 | 1521 ft | 19 kts | 351° |
| 2026-04-28 18:42 | 41.66023 | 44.96487 | 1521 ft | 19 kts | 315° |
| 2026-04-28 18:42 | 41.66128 | 44.96356 | 1526 ft | 22 kts | 323° |
| 2026-04-28 18:42 | 41.66256 | 44.96297 | 1526 ft | 18 kts | 358° |
| 2026-04-28 18:42 | 41.66363 | 44.96327 | 1521 ft | 15 kts | 13° |
| 2026-04-28 18:43 | 41.66477 | 44.96365 | 1521 ft | 18 kts | 14° |
| 2026-04-28 18:43 | 41.66614 | 44.96407 | 1522 ft | 22 kts | 13° |
| 2026-04-28 18:43 | 41.66737 | 44.96407 | 1525 ft | 15 kts | 325° |
| 2026-04-28 18:43 | 41.66788 | 44.96336 | 1525 ft | 8 kts | 321° |
| 2026-04-28 18:44 | 41.66810 | 44.96332 | 1526 ft | 3 kts | 26° |
| 2026-04-28 18:44 | 41.66856 | 44.96387 | 1525 ft | 0 kts | 43° |
| 2026-04-28 18:44 | 41.66863 | 44.96396 | 1522 ft | 0 kts | 43° |